Time;durP1;ratioP1;P1;durP2;ratioP2;P2;SDS_P1;SDS_P2;PMS_P1;PMS_P2;Temp;Humidity;BMP_temperature;BMP_pressure;BME280_temperature;BME280_humidity;BME280_pressure;Samples;Min_cycle;Max_cycle;Signal;HPM_P1;HPM_P2
2023/03/09 00:01:47;;;;;;;3.87;1.20;;;;;;;11.01;100.00;98020.41;5073065;28;20923;-67
2023/03/09 00:04:16;;;;;;;4.10;1.83;;;;;;;10.98;100.00;98020.84;5072746;28;20229;-68
2023/03/09 00:06:45;;;;;;;3.63;0.80;;;;;;;11.00;100.00;98024.91;5071324;28;20243;-67
2023/03/09 00:09:13;;;;;;;2.53;1.00;;;;;;;10.97;100.00;98021.88;5072692;28;20764;-68
2023/03/09 00:11:41;;;;;;;2.87;0.80;;;;;;;10.98;100.00;98026.97;5073797;28;20335;-66
2023/03/09 00:14:09;;;;;;;2.87;0.80;;;;;;;11.01;100.00;98031.00;5069149;28;20211;-67
2023/03/09 00:16:39;;;;;;;3.10;0.60;;;;;;;11.01;100.00;98031.81;5070191;28;20224;-67
2023/03/09 00:19:08;;;;;;;2.50;0.73;;;;;;;11.03;100.00;98031.63;5072845;28;20703;-65
2023/03/09 00:21:36;;;;;;;4.53;1.00;;;;;;;11.04;100.00;98039.38;5070926;28;20210;-66
2023/03/09 00:24:07;;;;;;;4.00;0.77;;;;;;;11.06;99.32;98042.63;5071026;28;20261;-66
2023/03/09 00:26:36;;;;;;;2.63;0.50;;;;;;;11.08;99.10;98042.44;5069453;28;20204;-66
2023/03/09 00:29:05;;;;;;;1.23;0.50;;;;;;;11.09;98.41;98044.84;5070983;28;20208;-67
2023/03/09 00:31:33;;;;;;;4.90;0.43;;;;;;;11.09;97.63;98044.03;5067581;28;20207;-68
2023/03/09 00:34:01;;;;;;;3.10;1.33;;;;;;;11.10;97.37;98041.19;5073985;28;20208;-67
2023/03/09 00:36:30;;;;;;;2.70;0.57;;;;;;;11.15;96.68;98040.56;5071813;28;20240;-66
2023/03/09 00:38:59;;;;;;;2.93;0.60;;;;;;;11.19;95.82;98033.78;5072565;28;20312;-66
2023/03/09 00:41:30;;;;;;;1.60;0.50;;;;;;;11.20;95.25;98044.19;5072267;28;20873;-68
2023/03/09 00:43:58;;;;;;;2.30;0.40;;;;;;;11.19;95.23;98034.63;5073571;28;20584;-66
2023/03/09 00:46:26;;;;;;;1.93;1.03;;;;;;;11.19;95.13;98044.41;5073022;28;20211;-66
2023/03/09 00:48:54;;;;;;;1.00;0.50;;;;;;;11.26;94.40;98040.69;5072105;28;20255;-66
2023/03/09 00:51:22;;;;;;;1.77;0.70;;;;;;;11.19;94.47;98039.09;5070645;28;20246;-67
2023/03/09 00:53:51;;;;;;;1.63;0.47;;;;;;;11.12;95.22;98048.94;5072041;28;21064;-67
2023/03/09 00:56:21;;;;;;;2.10;0.50;;;;;;;11.10;95.27;98059.75;5071750;28;20237;-67
2023/03/09 00:58:49;;;;;;;2.03;0.43;;;;;;;11.14;95.00;98063.63;5072978;28;20216;-67
2023/03/09 01:01:17;;;;;;;2.00;0.53;;;;;;;11.12;94.14;98062.19;5073845;28;20620;-67
2023/03/09 01:03:45;;;;;;;1.03;0.30;;;;;;;11.12;93.90;98055.06;5071741;28;20204;-67
2023/03/09 01:06:15;;;;;;;1.03;0.30;;;;;;;11.14;93.61;98058.31;5070958;28;20344;-66
2023/03/09 01:08:45;;;;;;;0.97;0.50;;;;;;;11.13;92.96;98050.56;5069866;28;20214;-68
2023/03/09 01:11:16;;;;;;;3.80;0.80;;;;;;;11.11;93.50;98060.56;5069622;28;20211;-67
2023/03/09 01:13:44;;;;;;;3.50;0.40;;;;;;;11.12;93.32;98055.06;5071301;28;20202;-65
2023/03/09 01:16:12;;;;;;;1.53;0.40;;;;;;;11.15;93.25;98059.94;5070129;28;20290;-66
2023/03/09 01:18:40;;;;;;;0.77;0.40;;;;;;;11.19;92.81;98060.31;5069339;28;20623;-66
2023/03/09 01:21:08;;;;;;;1.37;0.50;;;;;;;11.17;92.63;98054.44;5071846;28;20215;-66
2023/03/09 01:23:37;;;;;;;2.63;0.60;;;;;;;11.15;93.15;98061.78;5071311;28;20212;-67
2023/03/09 01:26:07;;;;;;;0.80;0.40;;;;;;;11.10;92.89;98066.88;5070317;28;20777;-66
2023/03/09 01:28:36;;;;;;;3.43;0.87;;;;;;;11.13;92.74;98066.47;5069118;28;20216;-66
2023/03/09 01:31:07;;;;;;;1.50;0.47;;;;;;;11.13;92.61;98069.13;5069271;28;20220;-66
2023/03/09 01:33:35;;;;;;;1.90;1.10;;;;;;;11.10;92.71;98082.78;5067141;28;20220;-67
2023/03/09 01:36:05;;;;;;;1.37;0.53;;;;;;;11.12;92.02;98084.22;5069653;28;20918;-67
2023/03/09 01:38:33;;;;;;;1.70;0.73;;;;;;;11.13;90.84;98085.03;5072050;28;20224;-66
2023/03/09 01:41:02;;;;;;;1.27;0.60;;;;;;;11.17;90.33;98086.25;5074258;28;20208;-69
2023/03/09 01:43:34;;;;;;;4.47;0.50;;;;;;;11.20;89.86;98085.81;5076596;28;20209;-67
2023/03/09 01:46:33;;;;;;;2.03;0.60;;;;;;;11.19;89.89;98092.16;5074708;28;20673;-67
2023/03/09 01:49:06;;;;;;;2.20;0.60;;;;;;;11.23;89.64;98090.72;5074581;28;21008;-67
2023/03/09 01:51:40;;;;;;;2.17;0.67;;;;;;;11.26;89.34;98090.28;5074607;28;20213;-67
2023/03/09 01:54:12;;;;;;;1.77;0.60;;;;;;;11.28;89.26;98098.84;5078058;28;20927;-66
2023/03/09 01:56:42;;;;;;;1.50;0.40;;;;;;;11.33;88.75;98107.00;5074217;28;20248;-65
2023/03/09 01:59:11;;;;;;;2.67;1.20;;;;;;;11.29;89.42;98101.28;5077520;28;20367;-66
2023/03/09 02:01:42;;;;;;;2.53;0.60;;;;;;;11.28;89.84;98101.50;5075560;28;20210;-66
2023/03/09 02:04:17;;;;;;;2.43;0.60;;;;;;;11.34;90.27;98105.19;5077860;28;20288;-66
2023/03/09 02:06:45;;;;;;;1.43;0.60;;;;;;;11.28;90.78;98107.63;5072919;28;20232;-65
2023/03/09 02:09:21;;;;;;;2.87;0.70;;;;;;;11.32;91.43;98118.66;5072744;28;20769;-67
2023/03/09 02:11:50;;;;;;;2.63;0.60;;;;;;;11.33;91.33;98117.63;5074557;28;20296;-66
2023/03/09 02:14:19;;;;;;;1.33;0.70;;;;;;;11.36;91.90;98129.63;5077001;28;20215;-66
2023/03/09 02:16:48;;;;;;;1.03;0.50;;;;;;;11.38;92.51;98143.50;5075784;28;20996;-68
2023/03/09 02:19:27;;;;;;;2.90;0.70;;;;;;;11.38;92.46;98160.25;5072777;28;20214;-68
2023/03/09 02:21:55;;;;;;;1.83;0.60;;;;;;;11.38;92.63;98154.94;5074004;28;20232;-66
2023/03/09 02:24:33;;;;;;;7.67;1.13;;;;;;;11.40;93.03;98152.91;5075203;28;20210;-68
2023/03/09 02:27:03;;;;;;;2.50;0.80;;;;;;;11.40;93.00;98152.91;5074492;28;20207;-65
2023/03/09 02:29:32;;;;;;;3.13;0.97;;;;;;;11.39;92.86;98167.19;5072388;28;20214;-67
2023/03/09 02:32:00;;;;;;;1.30;0.60;;;;;;;11.37;93.19;98163.09;5075261;28;20214;-66
2023/03/09 02:34:27;;;;;;;3.07;0.90;;;;;;;11.38;93.00;98175.34;5070540;28;20356;-69
2023/03/09 02:36:55;;;;;;;1.37;0.70;;;;;;;11.41;92.76;98183.72;5071087;28;20699;-67
2023/03/09 02:39:35;;;;;;;3.20;1.30;;;;;;;11.38;92.88;98191.25;5074959;28;20412;-65
2023/03/09 02:42:05;;;;;;;2.83;0.87;;;;;;;11.36;92.96;98199.44;5073901;28;20208;-67
2023/03/09 02:44:35;;;;;;;1.60;0.87;;;;;;;11.33;93.28;98199.88;5074772;28;20266;-67
2023/03/09 02:47:08;;;;;;;3.80;1.00;;;;;;;11.32;92.73;98211.50;5071472;28;20220;-66
2023/03/09 02:49:36;;;;;;;1.40;0.70;;;;;;;11.29;93.04;98219.84;5073274;28;20206;-66
2023/03/09 02:52:05;;;;;;;1.67;0.90;;;;;;;11.31;92.45;98234.56;5068048;28;20690;-66
2023/03/09 02:54:32;;;;;;;2.23;0.80;;;;;;;11.32;92.37;98238.03;5070227;28;20232;-67
2023/03/09 02:57:00;;;;;;;4.23;0.90;;;;;;;11.27;92.23;98235.97;5067796;28;20233;-66
2023/03/09 02:59:28;;;;;;;2.43;0.73;;;;;;;11.25;92.83;98234.56;5069213;28;20758;-67
2023/03/09 03:01:58;;;;;;;1.50;0.70;;;;;;;11.28;92.20;98213.72;5071449;28;20299;-66
2023/03/09 03:04:25;;;;;;;2.10;0.70;;;;;;;11.31;91.85;98220.47;5070674;28;20219;-66
2023/03/09 03:06:53;;;;;;;3.03;0.83;;;;;;;11.29;91.75;98222.50;5070204;28;20297;-67
2023/03/09 03:09:21;;;;;;;1.33;0.60;;;;;;;11.28;91.11;98228.84;5071389;28;20836;-67
2023/03/09 03:11:49;;;;;;;2.27;0.60;;;;;;;11.30;90.80;98224.16;5069935;28;20333;-66
2023/03/09 03:14:16;;;;;;;1.87;0.57;;;;;;;11.25;90.59;98229.28;5071903;28;20294;-68
2023/03/09 03:16:44;;;;;;;1.03;0.57;;;;;;;11.26;90.55;98236.19;5069883;28;20345;-68
2023/03/09 03:19:13;;;;;;;2.47;0.80;;;;;;;11.23;90.25;98239.25;5074526;28;20209;-66
2023/03/09 03:21:41;;;;;;;1.30;0.60;;;;;;;11.25;89.61;98237.22;5068894;28;20715;-67
2023/03/09 03:24:09;;;;;;;1.10;0.50;;;;;;;11.22;89.55;98250.88;5070847;28;21277;-68
2023/03/09 03:26:36;;;;;;;2.80;0.93;;;;;;;11.20;88.91;98260.88;5071639;28;20220;-66
2023/03/09 03:29:04;;;;;;;3.50;0.70;;;;;;;11.18;88.97;98273.53;5074178;28;20209;-67
2023/03/09 03:31:32;;;;;;;2.80;0.50;;;;;;;11.19;88.04;98280.47;5069816;28;20218;-68
2023/03/09 03:34:00;;;;;;;1.13;0.50;;;;;;;11.15;88.25;98288.03;5069473;28;20330;-68
2023/03/09 03:36:29;;;;;;;1.20;0.50;;;;;;;11.16;88.62;98300.28;5072226;28;20232;-68
2023/03/09 03:38:57;;;;;;;1.10;0.43;;;;;;;11.19;87.78;98304.34;5073909;28;20210;-66
2023/03/09 03:41:25;;;;;;;3.07;0.60;;;;;;;11.23;87.31;98311.69;5076153;28;20215;-66
2023/03/09 03:43:53;;;;;;;1.33;0.50;;;;;;;11.22;87.22;98311.91;5074921;28;20679;-66
2023/03/09 03:46:21;;;;;;;3.03;0.67;;;;;;;11.24;87.15;98323.94;5072984;28;20214;-67
2023/03/09 03:48:49;;;;;;;1.87;0.70;;;;;;;11.24;87.13;98333.75;5076999;28;20214;-67
2023/03/09 03:51:17;;;;;;;1.47;0.50;;;;;;;11.26;86.97;98336.97;5073192;28;20961;-66
2023/03/09 03:53:46;;;;;;;1.70;0.50;;;;;;;11.24;87.31;98350.47;5074148;28;20239;-65
2023/03/09 03:56:14;;;;;;;2.30;0.60;;;;;;;11.24;87.23;98357.63;5076271;28;20256;-66
2023/03/09 03:58:42;;;;;;;0.53;0.33;;;;;;;11.21;87.54;98360.66;5073142;28;20230;-67
2023/03/09 04:01:09;;;;;;;3.63;0.53;;;;;;;11.16;87.87;98360.47;5075013;28;20209;-66
2023/03/09 04:03:37;;;;;;;1.20;0.50;;;;;;;11.21;86.93;98363.31;5073213;28;20253;-66
2023/03/09 04:06:05;;;;;;;3.10;0.70;;;;;;;11.17;86.99;98370.06;5075030;28;20288;-66
2023/03/09 04:08:33;;;;;;;2.80;0.70;;;;;;;11.16;87.18;98374.56;5069938;28;20670;-72
2023/03/09 04:11:06;;;;;;;2.57;0.90;;;;;;;11.17;86.57;98383.31;5067335;28;20209;-66
2023/03/09 04:13:34;;;;;;;3.93;0.60;;;;;;;11.09;86.54;98383.50;5072236;28;20236;-66
2023/03/09 04:16:02;;;;;;;3.43;0.90;;;;;;;11.15;86.19;98394.13;5072661;28;20266;-66
2023/03/09 04:18:30;;;;;;;3.00;0.70;;;;;;;11.06;86.16;98403.28;5069708;28;20237;-65
2023/03/09 04:20:58;;;;;;;2.10;0.63;;;;;;;11.04;86.28;98400.03;5072062;28;20214;-66
2023/03/09 04:23:26;;;;;;;4.00;0.80;;;;;;;11.02;86.09;98414.50;5072080;28;20264;-67
2023/03/09 04:25:55;;;;;;;3.30;1.00;;;;;;;11.08;85.92;98424.31;5071513;28;20210;-66
2023/03/09 04:28:25;;;;;;;2.07;0.90;;;;;;;11.10;85.23;98422.25;5070852;28;20205;-66
2023/03/09 04:30:54;;;;;;;3.83;1.13;;;;;;;11.10;85.47;98432.88;5071038;28;20215;-68
2023/03/09 04:33:22;;;;;;;3.53;1.10;;;;;;;11.14;85.42;98428.81;5072040;28;21404;-66
2023/03/09 04:35:50;;;;;;;2.13;0.83;;;;;;;11.13;85.56;98443.91;5069287;28;20613;-67
2023/03/09 04:38:18;;;;;;;3.87;1.07;;;;;;;11.09;85.26;98447.13;5068424;28;20236;-68
2023/03/09 04:40:45;;;;;;;3.30;1.00;;;;;;;11.11;85.00;98458.38;5072280;28;20212;-66
2023/03/09 04:43:13;;;;;;;2.63;0.97;;;;;;;11.05;85.14;98467.97;5071142;28;20286;-67
2023/03/09 04:45:42;;;;;;;5.80;1.90;;;;;;;11.08;84.94;98480.00;5072972;28;20212;-67
2023/03/09 04:48:10;;;;;;;5.87;1.37;;;;;;;11.00;85.57;98472.19;5070144;28;20208;-67
2023/03/09 04:50:38;;;;;;;6.17;1.80;;;;;;;10.90;86.12;98473.44;5072632;28;20742;-67
2023/03/09 04:53:05;;;;;;;4.73;1.57;;;;;;;10.85;86.75;98473.19;5070640;28;20214;-66
2023/03/09 04:55:35;;;;;;;4.13;1.60;;;;;;;10.80;87.60;98475.63;5070958;28;20216;-66
2023/03/09 04:58:03;;;;;;;6.87;1.77;;;;;;;10.80;87.33;98472.97;5072182;28;20672;-66
2023/03/09 05:00:32;;;;;;;4.77;1.90;;;;;;;10.71;87.82;98486.59;5072440;28;20231;-67
2023/03/09 05:03:01;;;;;;;5.57;2.03;;;;;;;10.74;87.65;98502.91;5071970;28;20219;-67
2023/03/09 05:05:28;;;;;;;5.57;2.33;;;;;;;10.73;87.45;98509.22;5070264;28;21041;-68
2023/03/09 05:07:56;;;;;;;7.60;1.90;;;;;;;10.71;87.33;98524.53;5070998;28;20205;-65
2023/03/09 05:10:24;;;;;;;6.10;1.80;;;;;;;10.69;87.14;98531.03;5068235;28;20234;-65
2023/03/09 05:12:51;;;;;;;7.40;2.47;;;;;;;10.75;86.95;98546.94;5073260;28;20214;-66
2023/03/09 05:15:19;;;;;;;5.43;1.77;;;;;;;10.80;86.20;98544.56;5074479;28;20222;-66
2023/03/09 05:17:47;;;;;;;11.53;2.33;;;;;;;10.82;85.97;98547.81;5074383;28;20243;-66
2023/03/09 05:20:16;;;;;;;7.27;2.60;;;;;;;10.85;85.35;98541.28;5074783;28;20216;-64
2023/03/09 05:22:44;;;;;;;6.63;2.30;;;;;;;10.88;85.24;98540.91;5074857;28;20209;-65
2023/03/09 05:25:12;;;;;;;8.00;2.50;;;;;;;10.88;84.70;98546.22;5073569;28;20217;-66
2023/03/09 05:27:40;;;;;;;10.80;2.80;;;;;;;10.82;84.72;98537.19;5075954;28;20212;-66
2023/03/09 05:30:09;;;;;;;10.83;2.57;;;;;;;10.86;84.69;98546.41;5077540;28;20217;-67
2023/03/09 05:32:36;;;;;;;10.13;2.43;;;;;;;10.90;84.18;98547.66;5072836;28;20701;-65
2023/03/09 05:35:05;;;;;;;10.17;2.63;;;;;;;10.89;83.95;98559.28;5073479;28;20242;-67
2023/03/09 05:37:34;;;;;;;12.73;3.33;;;;;;;10.92;83.38;98560.69;5072782;28;20243;-66
2023/03/09 05:40:04;;;;;;;9.00;2.23;;;;;;;11.00;82.92;98565.03;5079749;28;20224;-66
2023/03/09 05:42:32;;;;;;;9.63;2.83;;;;;;;11.02;82.89;98570.94;5077585;28;20207;-66
2023/03/09 05:45:03;;;;;;;12.00;2.60;;;;;;;10.99;82.86;98587.28;5075635;28;20306;-66
2023/03/09 05:47:30;;;;;;;9.43;3.20;;;;;;;11.02;82.70;98605.44;5080105;28;20279;-65
2023/03/09 05:49:58;;;;;;;13.77;3.17;;;;;;;10.98;83.24;98604.19;5075143;28;20750;-66
2023/03/09 05:52:26;;;;;;;11.13;3.00;;;;;;;10.98;83.86;98604.19;5075031;28;20218;-69
2023/03/09 05:54:55;;;;;;;15.80;3.90;;;;;;;11.20;83.28;98608.38;5073041;28;20479;-66
2023/03/09 05:57:23;;;;;;;14.13;3.00;;;;;;;11.17;82.99;98608.78;5077055;28;20475;-66
2023/03/09 05:59:50;;;;;;;14.43;3.40;;;;;;;11.19;82.56;98609.38;5076051;28;20230;-66
2023/03/09 06:02:18;;;;;;;12.23;3.07;;;;;;;11.19;82.92;98604.09;5073178;28;21412;-66
2023/03/09 06:04:50;;;;;;;13.03;3.80;;;;;;;11.21;83.04;98615.31;5077626;28;20213;-66
2023/03/09 06:07:17;;;;;;;11.57;2.70;;;;;;;11.22;83.05;98609.00;5075911;28;20239;-66
2023/03/09 06:09:45;;;;;;;13.97;2.93;;;;;;;11.26;83.36;98618.19;5071885;28;20206;-66
2023/03/09 06:12:14;;;;;;;11.43;3.47;;;;;;;11.27;83.17;98609.22;5075004;28;20219;-66
2023/03/09 06:14:42;;;;;;;12.53;3.10;;;;;;;11.35;82.86;98617.00;5074420;28;20216;-65
2023/03/09 06:17:10;;;;;;;12.97;3.40;;;;;;;11.33;82.96;98619.06;5074367;28;20658;-66
2023/03/09 06:19:38;;;;;;;7.93;2.57;;;;;;;11.31;82.99;98615.78;5072681;28;20231;-66
2023/03/09 06:22:06;;;;;;;12.37;3.20;;;;;;;11.36;82.51;98602.72;5075490;28;20217;-66
2023/03/09 06:24:33;;;;;;;15.43;2.67;;;;;;;11.21;83.74;98617.97;5073581;28;20540;-66
2023/03/09 06:27:01;;;;;;;10.47;2.30;;;;;;;11.17;83.36;98633.47;5073971;28;20253;-66
2023/03/09 06:29:30;;;;;;;8.87;2.30;;;;;;;11.16;83.47;98633.69;5077780;28;20211;-66
2023/03/09 06:31:58;;;;;;;9.83;2.43;;;;;;;11.20;83.32;98645.53;5077477;28;20209;-66
2023/03/09 06:34:30;;;;;;;21.80;2.30;;;;;;;11.25;82.72;98653.72;5074397;28;20203;-66
2023/03/09 06:36:57;;;;;;;9.47;1.83;;;;;;;11.25;82.36;98651.91;5074926;28;20327;-66
2023/03/09 06:39:25;;;;;;;13.33;1.70;;;;;;;11.27;82.47;98657.78;5077761;28;20226;-66
2023/03/09 06:41:53;;;;;;;9.30;1.93;;;;;;;11.25;82.74;98669.63;5073575;28;20222;-66
2023/03/09 06:44:21;;;;;;;6.47;1.50;;;;;;;11.35;82.43;98671.91;5075526;28;20218;-66
2023/03/09 06:46:50;;;;;;;8.10;1.73;;;;;;;11.29;82.10;98676.19;5077346;28;20666;-65
2023/03/09 06:49:18;;;;;;;9.47;1.50;;;;;;;11.35;82.43;98679.88;5078466;28;20209;-66
2023/03/09 06:51:46;;;;;;;8.00;2.07;;;;;;;11.39;82.18;98681.94;5074262;28;20210;-66
2023/03/09 06:54:14;;;;;;;8.20;1.67;;;;;;;11.44;81.87;98676.88;5075326;28;20218;-65
2023/03/09 06:56:42;;;;;;;6.80;1.40;;;;;;;11.47;81.69;98687.09;5074854;28;20222;-65
2023/03/09 06:59:10;;;;;;;6.57;1.47;;;;;;;11.48;81.92;98688.72;5075755;28;20233;-66
2023/03/09 07:01:38;;;;;;;5.80;1.37;;;;;;;11.48;81.93;98691.38;5071560;28;20213;-65
2023/03/09 07:04:07;;;;;;;4.50;1.00;;;;;;;11.51;82.01;98696.31;5074083;28;20214;-66
2023/03/09 07:06:35;;;;;;;5.10;1.73;;;;;;;11.44;82.53;98700.75;5074517;28;20238;-66
2023/03/09 07:09:03;;;;;;;5.33;1.50;;;;;;;11.43;82.60;98699.13;5075186;28;20300;-66
2023/03/09 07:11:31;;;;;;;6.97;1.83;;;;;;;11.54;82.27;98708.34;5072912;28;20787;-65
2023/03/09 07:13:59;;;;;;;8.33;1.60;;;;;;;11.68;82.37;98715.38;5075966;28;20220;-62
2023/03/09 07:16:27;;;;;;;3.17;1.43;;;;;;;11.68;81.55;98728.66;5063563;28;20210;-65
2023/03/09 07:18:55;;;;;;;5.03;1.33;;;;;;;11.65;81.09;98737.81;5070088;28;20694;-64
2023/03/09 07:21:24;;;;;;;4.17;1.17;;;;;;;11.65;81.32;98737.00;5073419;28;20207;-64
2023/03/09 07:23:52;;;;;;;3.13;1.20;;;;;;;11.57;81.79;98747.78;5074883;28;20215;-66
2023/03/09 07:26:20;;;;;;;5.67;1.30;;;;;;;11.69;81.28;98752.34;5075117;28;20211;-64
2023/03/09 07:28:48;;;;;;;8.47;2.37;;;;;;;11.70;81.17;98753.97;5076030;28;20233;-65
2023/03/09 07:31:16;;;;;;;3.33;1.50;;;;;;;11.70;80.92;98753.97;5072569;28;20220;-65
2023/03/09 07:33:44;;;;;;;8.50;2.10;;;;;;;11.70;80.95;98769.06;5076127;28;21022;-66
2023/03/09 07:36:11;;;;;;;5.33;1.47;;;;;;;11.70;80.85;98764.59;5075555;28;20291;-65
2023/03/09 07:38:41;;;;;;;5.53;1.63;;;;;;;11.78;80.49;98770.81;5074332;28;20208;-65
2023/03/09 07:41:08;;;;;;;4.73;1.50;;;;;;;11.77;80.59;98774.47;5074501;28;20234;-68
2023/03/09 07:43:43;;;;;;;3.53;1.43;;;;;;;11.81;80.49;98771.22;5076154;28;20581;-65
2023/03/09 07:46:12;;;;;;;6.07;1.40;;;;;;;11.87;80.22;98769.63;5074843;28;20221;-65
2023/03/09 07:48:40;;;;;;;5.70;1.57;;;;;;;11.90;80.04;98774.53;5078585;28;20706;-65
2023/03/09 07:51:09;;;;;;;5.00;1.80;;;;;;;11.89;79.96;98778.19;5073541;28;20210;-65
2023/03/09 07:53:39;;;;;;;7.43;1.93;;;;;;;11.93;79.78;98796.22;5071962;28;20219;-67
2023/03/09 07:56:09;;;;;;;5.10;1.67;;;;;;;11.91;79.83;98792.94;5074922;28;20220;-65
2023/03/09 07:58:38;;;;;;;4.03;1.23;;;;;;;11.83;80.86;98797.59;5076774;28;20613;-66
2023/03/09 08:01:07;;;;;;;3.03;1.30;;;;;;;11.87;80.82;98798.84;5071095;28;20834;-66
2023/03/09 08:03:35;;;;;;;7.37;2.20;;;;;;;11.82;80.54;98803.91;5074458;28;20798;-66
2023/03/09 08:06:05;;;;;;;5.00;1.83;;;;;;;11.86;80.43;98803.34;5074455;28;20226;-66
2023/03/09 08:08:34;;;;;;;4.53;1.80;;;;;;;11.93;80.09;98806.00;5072504;28;20207;-66
2023/03/09 08:11:02;;;;;;;5.80;2.10;;;;;;;11.96;79.83;98800.31;5072174;28;20202;-67
2023/03/09 08:13:33;;;;;;;5.03;1.63;;;;;;;11.96;79.85;98802.97;5071919;28;20249;-65
2023/03/09 08:16:03;;;;;;;6.20;2.17;;;;;;;11.91;79.75;98806.22;5074271;28;20203;-65
2023/03/09 08:18:32;;;;;;;6.50;2.43;;;;;;;11.96;79.54;98814.38;5072658;28;20207;-66
2023/03/09 08:21:05;;;;;;;6.47;2.17;;;;;;;12.02;79.25;98823.44;5074110;28;20281;-67
2023/03/09 08:23:33;;;;;;;7.70;2.33;;;;;;;11.95;79.35;98815.44;5072738;28;21005;-67
2023/03/09 08:26:01;;;;;;;7.93;2.80;;;;;;;11.97;79.20;98823.19;5072395;28;21016;-67
2023/03/09 08:28:29;;;;;;;9.57;3.27;;;;;;;11.98;79.49;98819.50;5073870;28;20207;-65
2023/03/09 08:30:59;;;;;;;8.87;3.07;;;;;;;12.01;79.34;98835.06;5071006;28;20211;-67
2023/03/09 08:33:27;;;;;;;8.60;3.10;;;;;;;11.96;79.13;98845.47;5073003;28;20218;-66
2023/03/09 08:35:54;;;;;;;7.70;2.97;;;;;;;11.90;79.42;98843.56;5073006;28;20320;-65
2023/03/09 08:38:22;;;;;;;7.93;3.27;;;;;;;11.94;79.42;98850.16;5073875;28;20260;-66
2023/03/09 08:40:50;;;;;;;10.50;3.13;;;;;;;12.00;79.04;98846.72;5073276;28;20593;-66
2023/03/09 08:43:18;;;;;;;12.93;3.80;;;;;;;12.00;78.91;98859.97;5073102;28;20210;-66
2023/03/09 08:45:46;;;;;;;6.17;2.77;;;;;;;12.07;79.07;98855.53;5073946;28;20225;-66
2023/03/09 08:48:15;;;;;;;7.70;2.80;;;;;;;12.12;78.61;98866.41;5072971;28;20246;-66
2023/03/09 08:50:43;;;;;;;9.07;3.17;;;;;;;12.07;78.36;98877.59;5074848;28;20208;-66
2023/03/09 08:53:11;;;;;;;10.57;3.17;;;;;;;12.07;78.81;98872.28;5072236;28;20341;-66
2023/03/09 08:55:38;;;;;;;9.43;2.40;;;;;;;12.17;78.78;98877.25;5079875;28;20211;-66
2023/03/09 08:58:07;;;;;;;8.67;2.70;;;;;;;12.20;78.60;98881.34;5075812;28;20206;-66
2023/03/09 09:00:35;;;;;;;8.77;3.13;;;;;;;12.23;78.54;98887.06;5076426;28;20239;-65
2023/03/09 09:03:04;;;;;;;9.20;2.50;;;;;;;12.29;77.54;98875.69;5076451;28;20210;-66
2023/03/09 09:05:34;;;;;;;8.73;2.60;;;;;;;12.34;77.56;98883.88;5077978;28;20211;-66
2023/03/09 09:08:02;;;;;;;10.50;2.37;;;;;;;12.41;76.85;98890.03;5078001;28;20213;-65
2023/03/09 09:10:30;;;;;;;6.57;2.03;;;;;;;12.43;76.22;98892.50;5075986;28;20203;-66
2023/03/09 09:13:02;;;;;;;10.30;2.50;;;;;;;12.31;77.02;98904.72;5078339;28;20250;-66
2023/03/09 09:15:30;;;;;;;10.33;2.63;;;;;;;12.40;77.02;98892.91;5076798;28;20207;-66
2023/03/09 09:17:58;;;;;;;11.27;2.37;;;;;;;12.36;76.85;98900.44;5077780;28;20207;-67
2023/03/09 09:20:26;;;;;;;10.77;2.50;;;;;;;12.42;76.47;98912.94;5077189;28;20231;-65
2023/03/09 09:22:55;;;;;;;11.30;2.80;;;;;;;12.47;75.83;98914.19;5078516;28;20299;-66
2023/03/09 09:25:24;;;;;;;10.93;2.00;;;;;;;12.46;76.11;98907.22;5076040;28;20933;-64
2023/03/09 09:27:52;;;;;;;12.87;2.60;;;;;;;12.51;76.19;98916.25;5076172;28;20298;-66
2023/03/09 09:30:20;;;;;;;12.73;2.50;;;;;;;12.48;76.27;98915.84;5076963;28;20210;-66
2023/03/09 09:32:48;;;;;;;11.43;2.50;;;;;;;12.52;75.71;98919.72;5078265;28;20303;-66
2023/03/09 09:35:19;;;;;;;11.00;2.50;;;;;;;12.56;75.78;98927.13;5077843;28;20679;-65
2023/03/09 09:37:46;;;;;;;8.57;2.40;;;;;;;12.57;75.57;98927.94;5076777;28;20660;-66
2023/03/09 09:40:16;;;;;;;11.73;2.23;;;;;;;12.64;75.02;98934.09;5076760;28;20295;-68
2023/03/09 09:42:45;;;;;;;13.03;2.60;;;;;;;12.72;74.55;98933.94;5076962;28;20216;-68
2023/03/09 09:45:26;;;;;;;11.90;2.57;;;;;;;13.00;73.69;98942.63;5077010;28;20204;-67
2023/03/09 09:47:56;;;;;;;11.63;2.47;;;;;;;13.15;71.92;98945.13;5078639;28;20201;-67
2023/03/09 09:50:31;;;;;;;14.00;2.77;;;;;;;13.24;71.93;98948.44;5078701;28;20568;-68
2023/03/09 09:53:06;;;;;;;10.87;2.50;;;;;;;13.26;71.88;98955.22;5078150;28;20211;-67
2023/03/09 09:55:40;;;;;;;11.87;2.27;;;;;;;13.22;71.79;98956.63;5076569;28;20291;-67
2023/03/09 09:58:20;;;;;;;16.30;2.80;;;;;;;13.13;71.98;98953.31;5075393;28;20204;-67
2023/03/09 10:00:51;;;;;;;7.57;2.20;;;;;;;13.02;71.92;98961.84;5074123;28;20263;-67
2023/03/09 10:03:22;;;;;;;19.47;3.17;;;;;;;12.95;72.44;98976.16;5076109;28;20207;-68
2023/03/09 10:05:56;;;;;;;11.83;2.20;;;;;;;12.93;73.00;98968.38;5080256;28;20226;-68
2023/03/09 10:08:30;;;;;;;8.77;1.80;;;;;;;12.89;72.65;98972.47;5077913;28;20617;-66
2023/03/09 10:11:08;;;;;;;10.33;2.33;;;;;;;12.84;73.20;98974.09;5081106;28;20221;-67
2023/03/09 10:13:44;;;;;;;11.87;2.10;;;;;;;12.78;72.57;98975.69;5077207;28;20208;-67
2023/03/09 10:16:17;;;;;;;8.53;2.43;;;;;;;12.82;73.94;98985.75;5076156;28;20210;-69
2023/03/09 10:18:48;;;;;;;8.10;2.00;;;;;;;12.93;73.29;98986.19;5077093;28;20200;-70
2023/03/09 10:21:23;;;;;;;8.67;2.40;;;;;;;13.07;73.70;98983.38;5076191;28;20260;-69
2023/03/09 10:23:56;;;;;;;9.33;2.27;;;;;;;13.10;72.42;98979.50;5076384;28;20207;-67
2023/03/09 10:26:42;;;;;;;8.47;1.80;;;;;;;13.19;72.02;98989.75;5073783;28;20662;-66
2023/03/09 10:29:20;;;;;;;15.47;2.40;;;;;;;13.28;71.15;98997.59;5076042;28;20261;-65
2023/03/09 10:31:53;;;;;;;12.93;2.83;;;;;;;13.22;71.90;98993.88;5074611;28;20215;-66
2023/03/09 10:34:24;;;;;;;5.90;1.73;;;;;;;13.23;72.15;99000.03;5077443;28;20208;-65
2023/03/09 10:37:01;;;;;;;11.87;1.80;;;;;;;13.25;72.15;99012.13;5076274;28;21007;-66
2023/03/09 10:39:34;;;;;;;9.37;1.80;;;;;;;13.30;71.95;99008.84;5077328;28;20209;-66
2023/03/09 10:42:17;;;;;;;9.70;1.43;;;;;;;13.36;71.79;99013.38;5076199;28;20322;-65
2023/03/09 10:44:57;;;;;;;7.10;1.53;;;;;;;13.27;72.40;99022.56;5076601;28;20201;-65
2023/03/09 10:47:25;;;;;;;9.80;1.83;;;;;;;13.16;72.88;99019.47;5077013;28;20207;-67
2023/03/09 10:50:10;;;;;;;11.33;2.03;;;;;;;13.26;72.97;99036.91;5077830;28;20214;-67
2023/03/09 10:52:51;;;;;;;8.17;1.70;;;;;;;13.28;73.80;99042.84;5077202;28;20210;-66
2023/03/09 10:55:35;;;;;;;6.93;1.23;;;;;;;13.24;74.43;99038.94;5078178;28;20213;-66
2023/03/09 10:58:15;;;;;;;6.90;1.83;;;;;;;13.19;75.05;99031.56;5074535;28;20213;-66
2023/03/09 11:00:53;;;;;;;6.50;1.70;;;;;;;13.18;74.67;99029.91;5075148;28;20243;-66
2023/03/09 11:03:22;;;;;;;5.63;1.13;;;;;;;13.21;74.59;99039.31;5074732;28;20241;-66
2023/03/09 11:05:51;;;;;;;3.80;1.17;;;;;;;13.24;74.63;99033.59;5078619;28;20235;-65
2023/03/09 11:08:27;;;;;;;7.10;1.17;;;;;;;13.24;74.60;99039.75;5071820;28;20217;-66
2023/03/09 11:11:02;;;;;;;8.47;1.43;;;;;;;13.33;74.24;99035.88;5076805;28;20201;-66
2023/03/09 11:13:32;;;;;;;4.13;1.00;;;;;;;13.43;74.03;99035.50;5077097;28;20228;-67
2023/03/09 11:16:14;;;;;;;4.57;1.33;;;;;;;13.41;73.09;99037.53;5076617;28;20240;-66
2023/03/09 11:18:42;;;;;;;5.07;1.43;;;;;;;13.44;72.93;99037.16;5075217;28;20207;-66
2023/03/09 11:21:20;;;;;;;7.13;1.33;;;;;;;13.51;72.92;99049.47;5074869;28;20321;-65
2023/03/09 11:23:52;;;;;;;3.63;1.07;;;;;;;13.54;72.10;99046.38;5073779;28;20205;-66
2023/03/09 11:26:25;;;;;;;4.40;1.00;;;;;;;13.54;70.97;99045.59;5073218;28;20214;-65
2023/03/09 11:28:59;;;;;;;6.80;1.00;;;;;;;13.62;70.67;99048.06;5077330;28;20209;-66
2023/03/09 11:31:36;;;;;;;6.40;1.80;;;;;;;13.66;70.75;99043.94;5072777;28;20211;-66
2023/03/09 11:34:07;;;;;;;3.93;1.47;;;;;;;13.66;70.22;99049.28;5076041;28;20654;-65
2023/03/09 11:36:40;;;;;;;5.80;1.30;;;;;;;13.58;70.11;99057.47;5075256;28;20290;-65
2023/03/09 11:39:19;;;;;;;5.73;1.27;;;;;;;13.63;70.38;99056.88;5075239;28;20803;-66
2023/03/09 11:41:50;;;;;;;3.87;1.10;;;;;;;13.70;71.07;99052.38;5076601;28;20214;-66
2023/03/09 11:44:26;;;;;;;7.13;1.50;;;;;;;13.71;71.95;99060.16;5074672;28;20352;-65